Thailine 9 — 9WGP9 — position and weather

sailwx.info

Track history (hours):
 
Tides and Currents Weather Stations Pressure Air Temp Water Temp Dewpoint Dewpoint Depression Visibility Wind Speed Wind Dir Waves Ship Positions

Thailine 9

Last reported at 2014-Nov-06 09:10 UTC. Time now 2014-Nov-23 12:18 UTC.
Position N 34°33' E 134°45'.
Warning: this ship's position is 17 days out of date.

Length 113 m; draft 5.3 m.

Type: Cargo ship. MMSI: 533791000.

Date/timePositionNaut miles runAvg speedWind from/ knotsBaromVisibWave heightAir tempDewpointWater temp
2014-Nov-06 09:10N 34°33' E 134°45'914.8
2014-Nov-06 08:33N 34°36' E 134°56'9 8.9
2014-Nov-06 07:33N 34°31' E 135°04'1212.5
2014-Nov-06 06:33N 34°19' E 134°60'1212.1
2014-Nov-06 05:33N 34°07' E 134°59'24211.0
2014-Nov-05 07:31N 35°08' E 139°44'1212.6
2014-Nov-05 06:33N 35°20' E 139°43'8 7.3
2014-Nov-05 05:32N 35°27' E 139°41'0 0.0
2014-Nov-05 04:32N 35°27' E 139°41'0 0.0
2014-Nov-05 03:32N 35°27' E 139°41'0 0.0
2014-Nov-05 02:32N 35°27' E 139°41'0 0.0
2014-Nov-05 01:32N 35°27' E 139°41'0 0.0
2014-Nov-05 00:32N 35°27' E 139°41'0 0.0
2014-Nov-04 23:32N 35°27' E 139°41'0 0.0
2014-Nov-04 22:32N 35°27' E 139°41'0 0.0
2014-Nov-04 21:32N 35°27' E 139°41'0 0.0
2014-Nov-04 20:32N 35°27' E 139°41'0 0.0
2014-Nov-04 19:32N 35°27' E 139°41'0 0.0
2014-Nov-04 18:32N 35°27' E 139°41'0 0.0
2014-Nov-04 17:32N 35°27' E 139°41'0 0.0
2014-Nov-04 16:29N 35°27' E 139°41'0 0.0
2014-Nov-04 15:32N 35°27' E 139°41'0 0.0
2014-Nov-04 14:32N 35°27' E 139°41'0 0.0
2014-Nov-04 13:32N 35°27' E 139°41'0 0.0
2014-Nov-04 12:32N 35°27' E 139°41'0 0.0
2014-Nov-04 11:32N 35°27' E 139°41'0 0.0
2014-Nov-04 10:32N 35°27' E 139°41'1 1.5
2014-Nov-04 09:33N 35°26' E 139°43'5 4.7
2014-Nov-04 08:33N 35°27' E 139°48'  
2014-Oct-30 08:31N 35°33' E 139°58'1313.2
2014-Oct-30 07:33N 35°26' E 139°46'6 5.6
2014-Oct-30 06:28N 35°22' E 139°39'0 0.0
2014-Oct-30 05:31N 35°22' E 139°39'0 0.0
2014-Oct-30 04:31N 35°22' E 139°39'0 0.0
2014-Oct-30 03:31N 35°22' E 139°39'0 0.0
2014-Oct-30 02:31N 35°22' E 139°39'0 0.0
2014-Oct-30 01:31N 35°22' E 139°39'0 0.0
2014-Oct-30 00:31N 35°22' E 139°39'0 0.0
2014-Oct-29 23:31N 35°22' E 139°39'0 0.0
2014-Oct-29 22:31N 35°22' E 139°39'0 0.0
2014-Oct-29 21:31N 35°22' E 139°39'0 0.0
2014-Oct-29 20:28N 35°22' E 139°39'0 0.0
2014-Oct-29 19:31N 35°22' E 139°39'0 0.0
2014-Oct-29 18:31N 35°22' E 139°39'0 0.0
2014-Oct-29 17:31N 35°22' E 139°39'0 0.0
2014-Oct-29 16:28N 35°22' E 139°39'0 0.0
2014-Oct-29 15:31N 35°22' E 139°39'0 0.0
2014-Oct-29 14:31N 35°22' E 139°39'0 0.0
2014-Oct-29 13:31N 35°22' E 139°39'0 0.0
2014-Oct-29 12:31N 35°22' E 139°39'0 0.1
2014-Oct-29 11:31N 35°22' E 139°39'0 0.1
2014-Oct-29 10:31N 35°22' E 139°39'0 0.0
2014-Oct-29 09:31N 35°22' E 139°39'0 0.0
2014-Oct-29 08:31N 35°22' E 139°39'0 0.0
2014-Oct-29 07:31N 35°22' E 139°39'0 0.1
2014-Oct-29 06:31N 35°22' E 139°39'0 0.0
2014-Oct-29 05:31N 35°22' E 139°39'0 0.0
2014-Oct-29 04:31N 35°22' E 139°39'0 0.0
2014-Oct-29 03:31N 35°22' E 139°39'0 0.0
2014-Oct-29 02:31N 35°22' E 139°39'0 0.0
2014-Oct-29 01:31N 35°22' E 139°39'0 0.0
2014-Oct-29 00:31N 35°22' E 139°39'0 0.0
2014-Oct-28 23:31N 35°22' E 139°39'0 0.0
2014-Oct-28 22:31N 35°22' E 139°39'1 0.9
2014-Oct-28 21:34N 35°23' E 139°40'0 0.0
2014-Oct-28 20:31N 35°23' E 139°40'0 0.0
2014-Oct-28 19:31N 35°23' E 139°40'0 0.0
2014-Oct-28 18:34N 35°23' E 139°40'0 0.0
2014-Oct-28 17:31N 35°23' E 139°40'0 0.0
2014-Oct-28 16:31N 35°23' E 139°40'0 0.0
2014-Oct-28 15:34N 35°23' E 139°40'0 0.0
2014-Oct-28 14:31N 35°23' E 139°40'0 0.0
2014-Oct-28 13:31N 35°23' E 139°40'0 0.0
2014-Oct-28 12:31N 35°23' E 139°40'0 0.0
2014-Oct-28 11:31N 35°23' E 139°40'0 0.0
2014-Oct-28 10:31N 35°23' E 139°40'0 0.1
2014-Oct-28 09:31N 35°23' E 139°40'0 0.0
2014-Oct-28 08:31N 35°23' E 139°40'0 0.0
2014-Oct-28 07:34N 35°23' E 139°40'0 0.0
2014-Oct-28 06:31N 35°23' E 139°40'0 0.0
2014-Oct-28 05:34N 35°23' E 139°40'0 0.0
2014-Oct-28 04:31N 35°23' E 139°40'0 0.1
2014-Oct-28 03:34N 35°23' E 139°40'0 0.1
2014-Oct-28 02:31N 35°23' E 139°40'0 0.0
2014-Oct-28 01:31N 35°23' E 139°40'0 0.0
2014-Oct-28 00:34N 35°23' E 139°40'0 0.0
2014-Oct-27 23:34N 35°23' E 139°40'0 0.0
2014-Oct-27 22:31N 35°23' E 139°40'0 0.0
2014-Oct-27 21:31N 35°23' E 139°40'0 0.0
2014-Oct-27 20:31N 35°23' E 139°40'0 0.0
2014-Oct-27 19:31N 35°23' E 139°40'0 0.0
2014-Oct-27 18:34N 35°23' E 139°40'0 0.0
2014-Oct-27 17:31N 35°23' E 139°40'0 0.0
2014-Oct-27 16:31N 35°23' E 139°40'0 0.0
2014-Oct-27 15:34N 35°23' E 139°40'0 0.1
2014-Oct-27 14:31N 35°23' E 139°40'0 0.0
2014-Oct-27 13:34N 35°23' E 139°40'0 0.0
2014-Oct-27 12:33N 35°23' E 139°40'0 0.0
2014-Oct-27 11:28N 35°23' E 139°40'0 0.0
2014-Oct-27 10:31N 35°23' E 139°40'0 0.0
2014-Oct-27 09:25N 35°23' E 139°40'  
Track history (hours):
 
Tides and Currents Weather Stations Pressure Air Temp Water Temp Dewpoint Dewpoint Depression Visibility Wind Speed Wind Dir Waves Ship Positions

Thailine 9

Last reported at 2014-Nov-06 09:10 UTC. Time now 2014-Nov-23 12:18 UTC.
Position N 34°33' E 134°45'.
Warning: this ship's position is 17 days out of date.

Length 113 m; draft 5.3 m.

Type: Cargo ship. MMSI: 533791000.

Date/timePositionNaut miles runAvg speedWind from/ knotsBaromVisibWave heightAir tempDewpointWater temp
2014-Nov-06 09:10N 34°33' E 134°45'914.8
2014-Nov-06 08:33N 34°36' E 134°56'9 8.9
2014-Nov-06 07:33N 34°31' E 135°04'1212.5
2014-Nov-06 06:33N 34°19' E 134°60'1212.1
2014-Nov-06 05:33N 34°07' E 134°59'24211.0
2014-Nov-05 07:31N 35°08' E 139°44'1212.6
2014-Nov-05 06:33N 35°20' E 139°43'8 7.3
2014-Nov-05 05:32N 35°27' E 139°41'0 0.0
2014-Nov-05 04:32N 35°27' E 139°41'0 0.0
2014-Nov-05 03:32N 35°27' E 139°41'0 0.0
2014-Nov-05 02:32N 35°27' E 139°41'0 0.0
2014-Nov-05 01:32N 35°27' E 139°41'0 0.0
2014-Nov-05 00:32N 35°27' E 139°41'0 0.0
2014-Nov-04 23:32N 35°27' E 139°41'0 0.0
2014-Nov-04 22:32N 35°27' E 139°41'0 0.0
2014-Nov-04 21:32N 35°27' E 139°41'0 0.0
2014-Nov-04 20:32N 35°27' E 139°41'0 0.0
2014-Nov-04 19:32N 35°27' E 139°41'0 0.0
2014-Nov-04 18:32N 35°27' E 139°41'0 0.0
2014-Nov-04 17:32N 35°27' E 139°41'0 0.0
2014-Nov-04 16:29N 35°27' E 139°41'0 0.0
2014-Nov-04 15:32N 35°27' E 139°41'0 0.0
2014-Nov-04 14:32N 35°27' E 139°41'0 0.0
2014-Nov-04 13:32N 35°27' E 139°41'0 0.0
2014-Nov-04 12:32N 35°27' E 139°41'0 0.0
2014-Nov-04 11:32N 35°27' E 139°41'0 0.0
2014-Nov-04 10:32N 35°27' E 139°41'1 1.5
2014-Nov-04 09:33N 35°26' E 139°43'5 4.7
2014-Nov-04 08:33N 35°27' E 139°48'  
2014-Oct-30 08:31N 35°33' E 139°58'1313.2
2014-Oct-30 07:33N 35°26' E 139°46'6 5.6
2014-Oct-30 06:28N 35°22' E 139°39'0 0.0
2014-Oct-30 05:31N 35°22' E 139°39'0 0.0
2014-Oct-30 04:31N 35°22' E 139°39'0 0.0
2014-Oct-30 03:31N 35°22' E 139°39'0 0.0
2014-Oct-30 02:31N 35°22' E 139°39'0 0.0
2014-Oct-30 01:31N 35°22' E 139°39'0 0.0
2014-Oct-30 00:31N 35°22' E 139°39'0 0.0
2014-Oct-29 23:31N 35°22' E 139°39'0 0.0
2014-Oct-29 22:31N 35°22' E 139°39'0 0.0
2014-Oct-29 21:31N 35°22' E 139°39'0 0.0
2014-Oct-29 20:28N 35°22' E 139°39'0 0.0
2014-Oct-29 19:31N 35°22' E 139°39'0 0.0
2014-Oct-29 18:31N 35°22' E 139°39'0 0.0
2014-Oct-29 17:31N 35°22' E 139°39'0 0.0
2014-Oct-29 16:28N 35°22' E 139°39'0 0.0
2014-Oct-29 15:31N 35°22' E 139°39'0 0.0
2014-Oct-29 14:31N 35°22' E 139°39'0 0.0
2014-Oct-29 13:31N 35°22' E 139°39'0 0.0
2014-Oct-29 12:31N 35°22' E 139°39'0 0.1
2014-Oct-29 11:31N 35°22' E 139°39'0 0.1
2014-Oct-29 10:31N 35°22' E 139°39'0 0.0
2014-Oct-29 09:31N 35°22' E 139°39'0 0.0
2014-Oct-29 08:31N 35°22' E 139°39'0 0.0
2014-Oct-29 07:31N 35°22' E 139°39'0 0.1
2014-Oct-29 06:31N 35°22' E 139°39'0 0.0
2014-Oct-29 05:31N 35°22' E 139°39'0 0.0
2014-Oct-29 04:31N 35°22' E 139°39'0 0.0
2014-Oct-29 03:31N 35°22' E 139°39'0 0.0
2014-Oct-29 02:31N 35°22' E 139°39'0 0.0
2014-Oct-29 01:31N 35°22' E 139°39'0 0.0
2014-Oct-29 00:31N 35°22' E 139°39'0 0.0
2014-Oct-28 23:31N 35°22' E 139°39'0 0.0
2014-Oct-28 22:31N 35°22' E 139°39'1 0.9
2014-Oct-28 21:34N 35°23' E 139°40'0 0.0
2014-Oct-28 20:31N 35°23' E 139°40'0 0.0
2014-Oct-28 19:31N 35°23' E 139°40'0 0.0
2014-Oct-28 18:34N 35°23' E 139°40'0 0.0
2014-Oct-28 17:31N 35°23' E 139°40'0 0.0
2014-Oct-28 16:31N 35°23' E 139°40'0 0.0
2014-Oct-28 15:34N 35°23' E 139°40'0 0.0
2014-Oct-28 14:31N 35°23' E 139°40'0 0.0
2014-Oct-28 13:31N 35°23' E 139°40'0 0.0
2014-Oct-28 12:31N 35°23' E 139°40'0 0.0
2014-Oct-28 11:31N 35°23' E 139°40'0 0.0
2014-Oct-28 10:31N 35°23' E 139°40'0 0.1
2014-Oct-28 09:31N 35°23' E 139°40'0 0.0
2014-Oct-28 08:31N 35°23' E 139°40'0 0.0
2014-Oct-28 07:34N 35°23' E 139°40'0 0.0
2014-Oct-28 06:31N 35°23' E 139°40'0 0.0
2014-Oct-28 05:34N 35°23' E 139°40'0 0.0
2014-Oct-28 04:31N 35°23' E 139°40'0 0.1
2014-Oct-28 03:34N 35°23' E 139°40'0 0.1
2014-Oct-28 02:31N 35°23' E 139°40'0 0.0
2014-Oct-28 01:31N 35°23' E 139°40'0 0.0
2014-Oct-28 00:34N 35°23' E 139°40'0 0.0
2014-Oct-27 23:34N 35°23' E 139°40'0 0.0
2014-Oct-27 22:31N 35°23' E 139°40'0 0.0
2014-Oct-27 21:31N 35°23' E 139°40'0 0.0
2014-Oct-27 20:31N 35°23' E 139°40'0 0.0
2014-Oct-27 19:31N 35°23' E 139°40'0 0.0
2014-Oct-27 18:34N 35°23' E 139°40'0 0.0
2014-Oct-27 17:31N 35°23' E 139°40'0 0.0
2014-Oct-27 16:31N 35°23' E 139°40'0 0.0
2014-Oct-27 15:34N 35°23' E 139°40'0 0.1
2014-Oct-27 14:31N 35°23' E 139°40'0 0.0
2014-Oct-27 13:34N 35°23' E 139°40'0 0.0
2014-Oct-27 12:33N 35°23' E 139°40'0 0.0
2014-Oct-27 11:28N 35°23' E 139°40'0 0.0
2014-Oct-27 10:31N 35°23' E 139°40'0 0.0
2014-Oct-27 09:25N 35°23' E 139°40'  

Dump ship's entire track history